Time;durP1;ratioP1;P1;durP2;ratioP2;P2;SDS_P1;SDS_P2;PMS_P1;PMS_P2;Temp;Humidity;BMP_temperature;BMP_pressure;BME280_temperature;BME280_humidity;BME280_pressure;Samples;Min_cycle;Max_cycle;Signal;HPM_P1;HPM_P2
2021/06/27 07:32:02;;;;;;;5.90;5.30;;;15.00;99.90;;;;;;5404477;23;20505;-88
2021/06/27 07:34:29;;;;;;;4.93;4.47;;;15.00;99.90;;;;;;4851375;29;20098;-88
2021/06/27 07:36:56;;;;;;;5.15;4.75;;;15.10;99.90;;;;;;4856260;29;20081;-89
2021/06/27 07:39:23;;;;;;;5.10;4.60;;;15.10;99.90;;;;;;4851025;29;20097;-91
2021/06/27 07:41:50;;;;;;;5.28;4.55;;;15.10;99.90;;;;;;4857690;29;20127;-89
2021/06/27 07:44:17;;;;;;;5.00;4.60;;;15.10;99.90;;;;;;4856439;29;20106;-89
2021/06/27 07:46:44;;;;;;;5.93;4.20;;;15.10;99.90;;;;;;4853821;29;20061;-89
2021/06/27 07:49:10;;;;;;;5.95;3.65;;;15.20;99.90;;;;;;4852880;29;20214;-89
2021/06/27 07:51:37;;;;;;;4.35;3.95;;;15.20;99.90;;;;;;4870451;29;20061;-89
2021/06/27 07:54:04;;;;;;;5.03;3.90;;;15.20;99.90;;;;;;4851848;29;20045;-89
2021/06/27 07:56:31;;;;;;;5.03;4.03;;;15.30;99.90;;;;;;4855874;29;20050;-88
2021/06/27 07:58:59;;;;;;;5.50;3.95;;;15.50;99.90;;;;;;4852326;29;20440;-88
2021/06/27 08:01:26;;;;;;;4.22;3.83;;;15.60;99.90;;;;;;4850245;29;20045;-88
2021/06/27 08:03:53;;;;;;;3.80;3.50;;;15.80;99.90;;;;;;4854351;29;20193;-87
2021/06/27 08:06:23;;;;;;;3.13;2.92;;;16.00;99.90;;;;;;4870765;29;20100;-88
2021/06/27 08:08:50;;;;;;;3.20;3.00;;;16.30;99.90;;;;;;4856559;29;20065;-87
2021/06/27 08:11:17;;;;;;;3.30;3.10;;;16.40;99.90;;;;;;4870866;29;20046;-87
2021/06/27 08:13:44;;;;;;;2.83;2.50;;;16.60;99.90;;;;;;4849812;29;20046;-87
2021/06/27 08:16:11;;;;;;;3.65;2.60;;;16.80;99.90;;;;;;4871919;29;20057;-86
2021/06/27 08:18:38;;;;;;;4.47;2.83;;;16.90;99.90;;;;;;4859274;29;20520;-87
2021/06/27 08:21:05;;;;;;;3.70;2.78;;;17.00;99.90;;;;;;4857411;29;20053;-85
2021/06/27 08:23:32;;;;;;;3.30;2.45;;;17.00;99.90;;;;;;4860867;29;20054;-86
2021/06/27 08:26:04;;;;;;;2.45;2.25;;;17.10;99.90;;;;;;4858617;29;20139;-89
2021/06/27 08:28:34;;;;;;;3.25;1.85;;;17.20;99.90;;;;;;4857005;29;20063;-89
2021/06/27 08:31:11;;;;;;;2.08;1.90;;;17.20;99.90;;;;;;4858082;29;20308;-89
2021/06/27 08:33:41;;;;;;;2.63;2.10;;;17.30;99.90;;;;;;4856377;29;20537;-89
2021/06/27 08:36:08;;;;;;;2.13;1.60;;;17.30;99.90;;;;;;4849849;29;20057;-89
2021/06/27 08:38:35;;;;;;;1.70;1.60;;;17.40;99.90;;;;;;4854729;29;20053;-86
2021/06/27 08:41:01;;;;;;;1.80;1.70;;;17.50;99.90;;;;;;4853312;29;20058;-88
2021/06/27 08:43:31;;;;;;;1.88;1.65;;;17.60;99.90;;;;;;4855080;29;20042;-89
2021/06/27 08:46:05;;;;;;;2.53;2.00;;;17.70;99.90;;;;;;4865908;29;20102;-87
2021/06/27 08:48:37;;;;;;;1.65;1.55;;;17.80;99.90;;;;;;4871149;29;20057;-86
2021/06/27 08:51:05;;;;;;;2.00;1.60;;;17.80;99.90;;;;;;4856352;29;20054;-85
2021/06/27 08:53:39;;;;;;;1.15;1.05;;;17.90;99.90;;;;;;4857183;29;20466;-86
2021/06/27 08:56:08;;;;;;;1.10;1.00;;;17.90;99.90;;;;;;4853788;29;20057;-89
2021/06/27 08:58:42;;;;;;;1.40;1.00;;;17.90;99.90;;;;;;4855254;29;20068;-87
2021/06/27 09:01:17;;;;;;;1.40;1.30;;;18.00;99.90;;;;;;4847894;29;20061;-90
2021/06/27 09:03:56;;;;;;;1.17;1.08;;;18.10;99.90;;;;;;4864477;29;20488;-87
2021/06/27 09:06:30;;;;;;;1.40;1.05;;;18.30;99.90;;;;;;4851056;29;20450;-89
2021/06/27 09:09:17;;;;;;;1.60;1.23;;;18.50;99.90;;;;;;4851125;29;20049;-86
2021/06/27 09:11:59;;;;;;;3.35;1.10;;;18.70;99.90;;;;;;4853975;29;20121;-87
2021/06/27 09:14:41;;;;;;;1.27;0.90;;;18.80;99.90;;;;;;4853819;29;20442;-88
2021/06/27 09:17:19;;;;;;;1.25;0.90;;;19.00;99.90;;;;;;4854489;29;20560;-87
2021/06/27 09:19:52;;;;;;;;;;;19.10;99.90;;;;;;4855922;29;20055;-87
2021/06/27 09:22:27;;;;;;;0.75;0.65;;;19.20;99.90;;;;;;4853101;29;19932;-86
2021/06/27 09:25:20;;;;;;;1.40;0.63;;;19.30;99.90;;;;;;4856265;29;20105;-85
2021/06/27 09:27:58;;;;;;;1.42;0.50;;;19.40;99.90;;;;;;4858273;29;20049;-87
2021/06/27 09:30:26;;;;;;;0.50;0.50;;;19.60;99.90;;;;;;4870567;29;20058;-87
2021/06/27 09:32:58;;;;;;;1.30;0.50;;;19.70;99.90;;;;;;4855807;29;20283;-84
2021/06/27 09:35:53;;;;;;;0.65;0.40;;;20.00;99.90;;;;;;4857803;29;20209;-86
2021/06/27 09:38:20;;;;;;;0.30;0.30;;;20.30;99.90;;;;;;4847299;29;20057;-85
2021/06/27 09:40:50;;;;;;;0.50;0.50;;;20.50;99.90;;;;;;4857133;29;20050;-86
2021/06/27 09:43:18;;;;;;;0.63;0.50;;;20.60;99.90;;;;;;4856719;29;20041;-85
2021/06/27 09:45:51;;;;;;;0.30;0.30;;;20.70;99.90;;;;;;4857134;29;20424;-86
2021/06/27 09:48:19;;;;;;;0.47;0.20;;;20.70;99.90;;;;;;4859382;29;20432;-87
2021/06/27 09:50:46;;;;;;;0.60;0.32;;;20.70;99.90;;;;;;4857511;29;20501;-85
2021/06/27 09:53:33;;;;;;;0.80;0.40;;;20.70;99.90;;;;;;4856772;29;20129;-85
2021/06/27 09:56:01;;;;;;;0.68;0.28;;;20.80;99.90;;;;;;4855900;29;20125;-86
2021/06/27 09:58:28;;;;;;;0.40;0.40;;;20.80;99.90;;;;;;4857998;29;20077;-84
2021/06/27 10:00:57;;;;;;;0.57;0.30;;;20.80;99.90;;;;;;4872063;29;20074;-85
2021/06/27 10:03:29;;;;;;;1.00;0.35;;;20.80;99.90;;;;;;4853241;29;20063;-86
2021/06/27 10:06:08;;;;;;;0.30;0.30;;;20.90;99.90;;;;;;4860428;29;20501;-86
2021/06/27 10:08:36;;;;;;;0.30;0.30;;;21.00;99.90;;;;;;4857524;29;20049;-85
2021/06/27 10:11:17;;;;;;;0.47;0.20;;;20.80;99.90;;;;;;4856710;29;20054;-88
2021/06/27 10:13:52;;;;;;;0.30;0.10;;;20.70;99.90;;;;;;4868767;29;20054;-87
2021/06/27 10:16:24;;;;;;;0.10;0.10;;;20.70;99.90;;;;;;4855382;29;20049;-86
2021/06/27 10:18:53;;;;;;;0.10;0.10;;;20.70;99.90;;;;;;4852322;29;20058;-85
2021/06/27 10:21:20;;;;;;;0.23;0.20;;;20.80;99.90;;;;;;4854437;29;20050;-86
2021/06/27 10:23:48;;;;;;;0.20;0.20;;;20.80;99.90;;;;;;4875559;29;20050;-87
2021/06/27 10:26:16;;;;;;;;;;;20.80;99.90;;;;;;4856960;29;20513;-87
2021/06/27 10:28:44;;;;;;;0.45;0.17;;;20.80;99.90;;;;;;4860060;29;19989;-85
2021/06/27 10:31:12;;;;;;;0.33;0.30;;;20.80;99.90;;;;;;4852830;29;20573;-86
2021/06/27 10:33:40;;;;;;;;;;;20.80;99.90;;;;;;4854625;29;20073;-89
2021/06/27 10:36:11;;;;;;;0.52;0.30;;;20.80;99.90;;;;;;4854954;29;19987;-88
2021/06/27 10:38:47;;;;;;;0.55;0.25;;;20.80;99.90;;;;;;4854848;29;20125;-85
2021/06/27 10:41:14;;;;;;;0.55;0.30;;;20.90;99.90;;;;;;4847625;29;20058;-88
2021/06/27 10:43:56;;;;;;;0.43;0.20;;;21.10;99.90;;;;;;4852430;29;20057;-86
2021/06/27 10:46:41;;;;;;;0.45;0.20;;;21.30;99.90;;;;;;4851518;29;20053;-86
2021/06/27 10:49:27;;;;;;;1.95;0.30;;;21.30;99.90;;;;;;4851027;29;20084;-86
2021/06/27 10:51:57;;;;;;;0.45;0.30;;;21.40;99.90;;;;;;4854926;29;20050;-87
2021/06/27 10:54:25;;;;;;;0.68;0.20;;;21.50;99.90;;;;;;4846932;29;20053;-84
2021/06/27 10:57:00;;;;;;;0.30;0.30;;;21.60;99.90;;;;;;4846700;29;20666;-85
2021/06/27 10:59:40;;;;;;;0.30;0.30;;;21.60;99.90;;;;;;4852149;29;20045;-87
2021/06/27 11:02:20;;;;;;;1.77;1.20;;;21.70;99.90;;;;;;4850490;29;20054;-86
2021/06/27 11:04:49;;;;;;;0.50;0.20;;;21.70;99.90;;;;;;4847563;29;20577;-88
2021/06/27 11:07:38;;;;;;;1.15;0.20;;;21.70;99.90;;;;;;4851273;29;20055;-89
2021/06/27 11:10:20;;;;;;;0.32;0.30;;;21.60;99.90;;;;;;4850732;29;20062;-86
2021/06/27 11:13:14;;;;;;;1.10;0.60;;;21.50;99.90;;;;;;4849629;29;20458;-85
2021/06/27 11:15:44;;;;;;;2.20;0.43;;;21.60;99.90;;;;;;4851782;29;20054;-85
2021/06/27 11:18:27;;;;;;;3.72;0.40;;;21.50;99.90;;;;;;4857089;29;20054;-84
2021/06/27 11:20:54;;;;;;;0.22;0.20;;;21.50;99.90;;;;;;4858950;29;20118;-84
2021/06/27 11:23:45;;;;;;;0.17;0.17;;;21.40;99.90;;;;;;4853817;29;20057;-86
2021/06/27 11:26:37;;;;;;;0.32;0.22;;;21.30;99.90;;;;;;4846894;29;20073;-84
2021/06/27 11:29:23;;;;;;;1.00;0.35;;;21.20;99.90;;;;;;4847862;29;20081;-82
2021/06/27 11:31:50;;;;;;;0.47;0.15;;;21.20;99.90;;;;;;4849984;29;20175;-84
2021/06/27 11:34:20;;;;;;;0.30;0.15;;;21.30;99.90;;;;;;4849960;29;20042;-85
2021/06/27 11:36:48;;;;;;;0.30;0.28;;;21.40;99.90;;;;;;4850521;29;20493;-85
2021/06/27 11:39:43;;;;;;;1.20;0.30;;;21.40;99.90;;;;;;4851500;29;20154;-83
2021/06/27 11:42:29;;;;;;;1.25;0.45;;;21.40;99.90;;;;;;4864589;29;20509;-86
2021/06/27 11:45:08;;;;;;;0.20;0.20;;;21.60;99.90;;;;;;4854853;29;20098;-86
2021/06/27 11:47:38;;;;;;;0.68;0.40;;;21.70;99.90;;;;;;4851368;29;20458;-84
2021/06/27 11:50:20;;;;;;;0.40;0.20;;;21.70;99.90;;;;;;4852811;29;20077;-85
2021/06/27 11:52:53;;;;;;;0.38;0.20;;;21.70;99.90;;;;;;4875090;29;20094;-85
2021/06/27 11:55:31;;;;;;;0.20;0.20;;;21.50;99.90;;;;;;4860936;29;20054;-85
2021/06/27 11:58:00;;;;;;;0.10;0.10;;;21.40;99.90;;;;;;4868135;29;20102;-85
2021/06/27 12:00:52;;;;;;;0.55;0.25;;;21.30;99.90;;;;;;4875747;29;20053;-85
2021/06/27 12:03:21;;;;;;;0.80;0.47;;;21.20;99.90;;;;;;4854711;29;20136;-87
2021/06/27 12:06:02;;;;;;;3.80;0.85;;;21.00;99.90;;;;;;4860501;29;20057;-88
2021/06/27 12:08:31;;;;;;;2.15;1.05;;;20.80;99.90;;;;;;4852935;29;20068;-88
2021/06/27 12:11:01;;;;;;;0.75;0.70;;;20.60;99.90;;;;;;4857127;29;20581;-89
2021/06/27 12:13:29;;;;;;;1.60;0.75;;;20.40;99.90;;;;;;4854108;29;20109;-90
2021/06/27 12:15:58;;;;;;;1.15;0.60;;;20.30;99.90;;;;;;4856926;29;20762;-88
2021/06/27 12:18:31;;;;;;;0.65;0.40;;;20.20;99.90;;;;;;4871154;29;20085;-88
2021/06/27 12:21:12;;;;;;;0.50;0.50;;;20.20;99.90;;;;;;4872315;29;20057;-87
2021/06/27 12:23:41;;;;;;;0.50;0.50;;;20.10;99.90;;;;;;4866295;29;20516;-89
2021/06/27 12:26:14;;;;;;;1.75;0.40;;;20.00;99.90;;;;;;4854504;29;20061;-87
2021/06/27 12:28:47;;;;;;;0.60;0.50;;;19.90;99.90;;;;;;4855146;29;20463;-85
2021/06/27 12:31:32;;;;;;;0.50;0.40;;;19.80;99.90;;;;;;4853679;29;20085;-86
2021/06/27 12:34:06;;;;;;;1.42;0.50;;;19.90;99.90;;;;;;4851973;29;20100;-86
2021/06/27 12:36:40;;;;;;;0.20;0.20;;;19.90;99.90;;;;;;4855223;29;20466;-87
2021/06/27 12:39:16;;;;;;;2.28;0.70;;;19.80;99.90;;;;;;4852704;29;20057;-88
2021/06/27 12:41:43;;;;;;;3.17;0.60;;;19.80;99.90;;;;;;4857242;29;20057;-87
2021/06/27 12:44:12;;;;;;;0.98;0.50;;;19.70;99.90;;;;;;4868800;29;20053;-87
2021/06/27 12:46:47;;;;;;;0.40;0.40;;;19.70;99.90;;;;;;4869251;29;20570;-87
2021/06/27 12:49:18;;;;;;;0.30;0.30;;;19.70;99.90;;;;;;4862353;29;20513;-87
2021/06/27 12:51:55;;;;;;;1.17;0.40;;;19.60;99.90;;;;;;4853421;29;20102;-88
2021/06/27 12:54:28;;;;;;;0.80;0.50;;;19.60;99.90;;;;;;4851765;29;20089;-88
2021/06/27 12:57:05;;;;;;;0.73;0.65;;;19.50;99.90;;;;;;4857810;29;20057;-87
2021/06/27 12:59:37;;;;;;;0.80;0.75;;;19.60;99.90;;;;;;4865718;29;20506;-90
2021/06/27 13:02:11;;;;;;;0.80;0.80;;;19.60;99.90;;;;;;4853054;29;20254;-87
2021/06/27 13:04:44;;;;;;;1.08;0.98;;;19.50;99.90;;;;;;4856823;29;20053;-87
2021/06/27 13:07:24;;;;;;;0.85;0.85;;;19.50;99.90;;;;;;4853791;29;20113;-87
2021/06/27 13:10:01;;;;;;;1.65;0.75;;;19.20;99.90;;;;;;4851800;29;20065;-88
2021/06/27 13:13:01;;;;;;;0.70;0.60;;;19.00;99.90;;;;;;4852721;29;20564;-88
2021/06/27 13:15:45;;;;;;;0.30;0.30;;;19.00;99.90;;;;;;4850032;29;20049;-88
2021/06/27 13:18:21;;;;;;;0.30;0.30;;;18.90;99.90;;;;;;4857288;29;20077;-88
2021/06/27 13:20:53;;;;;;;0.30;0.30;;;18.90;99.90;;;;;;4858237;29;20061;-88
2021/06/27 13:23:27;;;;;;;0.40;0.40;;;19.00;99.90;;;;;;4855107;29;20053;-86
2021/06/27 13:25:57;;;;;;;0.52;0.52;;;19.10;99.90;;;;;;4852568;29;20077;-87
2021/06/27 13:28:26;;;;;;;12.45;1.05;;;19.30;99.90;;;;;;4864404;29;20057;-87
2021/06/27 13:31:01;;;;;;;0.60;0.60;;;19.40;99.90;;;;;;4866041;29;20061;-88
2021/06/27 13:33:43;;;;;;;0.68;0.60;;;19.30;99.90;;;;;;4853962;29;20060;-86
2021/06/27 13:36:17;;;;;;;0.90;0.40;;;19.20;99.90;;;;;;4847617;29;20110;-87
2021/06/27 13:38:49;;;;;;;0.40;0.40;;;19.20;99.90;;;;;;4853406;29;20084;-87
2021/06/27 13:41:21;;;;;;;0.95;0.50;;;19.10;99.90;;;;;;4856342;29;20509;-86
2021/06/27 13:43:50;;;;;;;1.50;0.80;;;19.00;99.90;;;;;;4869323;29;20513;-87
2021/06/27 13:46:18;;;;;;;0.52;0.52;;;18.90;99.90;;;;;;4867812;29;20062;-86
2021/06/27 13:48:46;;;;;;;2.10;0.65;;;18.90;99.90;;;;;;4850731;29;20081;-87
2021/06/27 13:51:15;;;;;;;1.25;0.70;;;18.90;99.90;;;;;;4854131;29;20061;-87
2021/06/27 13:53:42;;;;;;;0.82;0.70;;;19.00;99.90;;;;;;4855252;29;20054;-86
2021/06/27 13:56:15;;;;;;;0.70;0.52;;;19.00;99.90;;;;;;4853227;29;20042;-86
2021/06/27 13:58:45;;;;;;;1.50;0.70;;;19.10;99.90;;;;;;4853128;29;20196;-86
2021/06/27 14:01:13;;;;;;;1.35;0.43;;;19.20;99.90;;;;;;4852690;29;20041;-86
2021/06/27 14:03:40;;;;;;;0.63;0.57;;;19.30;99.90;;;;;;4872088;29;20050;-87
2021/06/27 14:06:07;;;;;;;0.50;0.50;;;19.50;99.90;;;;;;4855073;29;20057;-86
2021/06/27 14:08:36;;;;;;;1.00;0.40;;;19.70;99.90;;;;;;4866528;29;20053;-86
2021/06/27 14:11:06;;;;;;;0.82;0.28;;;19.90;99.90;;;;;;4855167;29;20064;-88
2021/06/27 14:13:38;;;;;;;0.40;0.20;;;20.20;99.90;;;;;;4852836;29;20181;-88
2021/06/27 14:16:07;;;;;;;0.38;0.25;;;20.50;99.90;;;;;;4859264;29;20510;-89
2021/06/27 14:18:35;;;;;;;0.90;0.30;;;20.70;99.90;;;;;;4857092;29;20049;-89
2021/06/27 14:21:04;;;;;;;0.40;0.40;;;21.00;99.90;;;;;;4873833;29;20045;-90
2021/06/27 14:23:30;;;;;;;0.45;0.40;;;21.10;99.90;;;;;;4861128;29;20544;-87
2021/06/27 14:25:57;;;;;;;2.05;0.68;;;21.10;99.90;;;;;;4868659;29;20057;-87
2021/06/27 14:28:29;;;;;;;0.60;0.40;;;21.10;99.90;;;;;;4857046;29;20109;-88
2021/06/27 14:30:58;;;;;;;1.17;0.40;;;21.20;99.90;;;;;;4853934;29;20462;-88
2021/06/27 14:33:25;;;;;;;0.90;0.40;;;21.20;99.90;;;;;;4859590;29;20097;-87
2021/06/27 14:36:00;;;;;;;0.68;0.40;;;21.20;99.90;;;;;;4853522;29;20057;-88
2021/06/27 14:38:27;;;;;;;0.47;0.20;;;21.20;99.90;;;;;;4852836;29;20041;-87
2021/06/27 14:40:56;;;;;;;0.00;0.00;;;21.10;99.90;;;;;;4863929;29;20050;-87
2021/06/27 14:43:22;;;;;;;;;;;21.00;99.90;;;;;;4852816;29;20539;-88
2021/06/27 14:45:50;;;;;;;0.10;0.00;;;20.80;99.90;;;;;;4864480;29;19928;-87
2021/06/27 14:48:17;;;;;;;0.40;0.10;;;20.70;99.90;;;;;;4857901;29;20113;-87
2021/06/27 14:50:45;;;;;;;0.25;0.20;;;20.50;99.90;;;;;;4857428;29;20359;-86
2021/06/27 14:53:32;;;;;;;1.45;0.10;;;20.30;99.90;;;;;;4857932;29;20049;-87
2021/06/27 14:55:59;;;;;;;0.47;0.20;;;20.20;99.90;;;;;;4854712;29;20069;-85
2021/06/27 14:58:27;;;;;;;0.95;0.30;;;20.20;99.90;;;;;;4853397;29;20077;-85
2021/06/27 15:00:54;;;;;;;0.95;0.20;;;20.10;99.90;;;;;;4849603;29;20093;-84
2021/06/27 15:03:21;;;;;;;1.15;0.30;;;20.10;99.90;;;;;;4867111;29;20101;-84
2021/06/27 15:05:48;;;;;;;0.63;0.40;;;20.00;99.90;;;;;;4850851;29;20110;-88
2021/06/27 15:08:15;;;;;;;0.88;0.28;;;19.90;99.90;;;;;;4846621;29;20565;-84
2021/06/27 15:10:43;;;;;;;1.08;0.20;;;19.90;99.90;;;;;;4849467;29;20129;-84
2021/06/27 15:13:10;;;;;;;1.65;0.28;;;20.00;99.90;;;;;;4850805;29;20526;-84
2021/06/27 15:15:37;;;;;;;0.22;0.10;;;20.10;99.90;;;;;;4845665;29;20053;-85
2021/06/27 15:18:05;;;;;;;1.52;0.20;;;20.30;99.90;;;;;;4851232;29;20057;-84
2021/06/27 15:20:33;;;;;;;1.55;0.25;;;20.50;99.90;;;;;;4852979;29;20077;-84
2021/06/27 15:23:00;;;;;;;1.83;0.30;;;20.70;99.90;;;;;;4852000;29;20083;-85
2021/06/27 15:25:27;;;;;;;1.05;0.40;;;20.80;99.90;;;;;;4855679;29;20050;-85
2021/06/27 15:27:54;;;;;;;1.48;0.32;;;20.90;99.90;;;;;;4857501;29;20765;-85
2021/06/27 15:30:22;;;;;;;2.97;0.40;;;21.00;99.90;;;;;;4865559;29;20057;-85
2021/06/27 15:32:51;;;;;;;1.10;0.30;;;20.90;99.90;;;;;;4850317;29;20523;-84
2021/06/27 15:35:19;;;;;;;2.58;0.40;;;20.90;99.90;;;;;;4852221;29;20103;-85
2021/06/27 15:37:48;;;;;;;1.02;0.43;;;20.90;99.90;;;;;;4849343;29;20060;-88
2021/06/27 15:40:18;;;;;;;2.50;0.40;;;21.00;99.90;;;;;;4850142;29;20049;-88
2021/06/27 15:42:45;;;;;;;1.48;0.38;;;21.20;99.90;;;;;;4849419;29;20085;-85
2021/06/27 15:45:13;;;;;;;1.38;0.38;;;21.30;99.90;;;;;;4852113;29;20061;-86
2021/06/27 15:47:40;;;;;;;2.28;0.43;;;21.50;99.90;;;;;;4866044;29;20224;-86
2021/06/27 15:50:08;;;;;;;1.65;0.40;;;21.60;99.90;;;;;;4860936;29;20599;-86
2021/06/27 15:52:34;;;;;;;3.10;0.30;;;21.60;99.90;;;;;;4849862;29;20478;-86
2021/06/27 15:55:03;;;;;;;2.97;0.60;;;21.50;99.90;;;;;;4848745;29;20524;-84
2021/06/27 15:57:30;;;;;;;2.53;0.50;;;21.30;99.90;;;;;;4852581;29;20081;-84
2021/06/27 15:59:57;;;;;;;1.08;0.38;;;21.30;99.90;;;;;;4853717;29;20045;-84
2021/06/27 16:02:24;;;;;;;0.80;0.32;;;21.20;99.90;;;;;;4851234;29;20061;-87
2021/06/27 16:04:51;;;;;;;1.77;0.30;;;21.00;99.90;;;;;;4868042;29;20061;-85
2021/06/27 16:07:18;;;;;;;1.17;0.28;;;21.10;99.90;;;;;;4856099;29;20057;-87
2021/06/27 16:09:45;;;;;;;3.45;0.65;;;21.20;99.90;;;;;;4862772;29;20473;-84
2021/06/27 16:12:12;;;;;;;3.92;0.50;;;21.20;99.90;;;;;;4861110;29;20467;-88
2021/06/27 16:14:39;;;;;;;1.92;0.43;;;21.20;99.90;;;;;;4850271;29;20144;-87
2021/06/27 16:17:06;;;;;;;1.90;0.60;;;21.20;99.90;;;;;;4847820;29;20246;-84
2021/06/27 16:19:33;;;;;;;2.63;0.70;;;21.20;99.90;;;;;;4849556;29;20046;-85
2021/06/27 16:22:03;;;;;;;2.33;0.40;;;21.10;99.90;;;;;;4850018;29;20478;-88
2021/06/27 16:24:33;;;;;;;1.60;0.40;;;21.00;99.90;;;;;;4851283;29;20053;-87
2021/06/27 16:27:02;;;;;;;3.13;0.73;;;20.80;99.90;;;;;;4846251;29;20114;-85
2021/06/27 16:29:30;;;;;;;3.13;0.50;;;20.70;99.90;;;;;;4853713;29;20101;-85
2021/06/27 16:31:59;;;;;;;2.58;0.50;;;20.70;99.90;;;;;;4861286;29;20118;-84
2021/06/27 16:34:28;;;;;;;2.25;0.40;;;20.80;99.90;;;;;;4856756;29;20072;-85
2021/06/27 16:36:58;;;;;;;0.90;0.35;;;21.00;99.90;;;;;;4849994;29;20469;-86
2021/06/27 16:39:26;;;;;;;5.35;0.68;;;21.10;99.90;;;;;;4861761;29;20141;-85
2021/06/27 16:41:55;;;;;;;2.83;0.50;;;21.20;99.90;;;;;;4851997;29;20819;-85
2021/06/27 16:44:22;;;;;;;;;;;21.30;99.90;;;;;;4850467;29;20110;-85
2021/06/27 16:46:49;;;;;;;2.45;0.52;;;21.30;99.90;;;;;;4851997;29;19960;-86
2021/06/27 16:49:17;;;;;;;2.10;0.60;;;21.40;99.90;;;;;;4853400;29;20057;-86
2021/06/27 16:51:44;;;;;;;3.40;0.50;;;21.50;99.90;;;;;;4864031;29;20050;-85
2021/06/27 16:54:11;;;;;;;1.58;0.60;;;21.60;99.90;;;;;;4866794;29;20469;-85
2021/06/27 16:56:39;;;;;;;2.05;0.60;;;21.80;99.90;;;;;;4854941;29;20083;-83
2021/06/27 16:59:06;;;;;;;3.38;0.60;;;22.00;99.90;;;;;;4854942;29;20069;-85
2021/06/27 17:01:34;;;;;;;1.52;0.40;;;22.10;99.90;;;;;;4864847;29;20514;-83
2021/06/27 17:04:01;;;;;;;2.35;0.50;;;22.30;99.90;;;;;;4852895;29;20500;-85
2021/06/27 17:06:28;;;;;;;2.63;0.70;;;22.30;99.90;;;;;;4847079;29;20473;-84
2021/06/27 17:08:55;;;;;;;1.70;0.52;;;22.30;99.90;;;;;;4862646;29;20057;-84
2021/06/27 17:11:23;;;;;;;2.95;0.65;;;22.20;99.90;;;;;;4864257;29;20133;-84
2021/06/27 17:13:50;;;;;;;3.03;0.60;;;22.00;99.90;;;;;;4852133;29;20069;-85
2021/06/27 17:16:17;;;;;;;3.63;0.90;;;21.80;99.90;;;;;;4863097;29;20429;-84
2021/06/27 17:18:44;;;;;;;1.70;0.60;;;21.60;99.90;;;;;;4855989;29;20472;-84
2021/06/27 17:21:11;;;;;;;2.15;0.68;;;21.40;99.90;;;;;;4856714;29;20517;-82
2021/06/27 17:23:38;;;;;;;4.13;0.80;;;21.30;99.90;;;;;;4854886;29;20076;-83
2021/06/27 17:26:05;;;;;;;3.28;0.82;;;21.10;99.90;;;;;;4853445;29;20125;-85
2021/06/27 17:28:32;;;;;;;5.32;0.80;;;21.00;99.90;;;;;;4847365;29;20069;-86
2021/06/27 17:30:59;;;;;;;4.03;0.70;;;20.80;99.90;;;;;;4843016;29;20061;-84
2021/06/27 17:33:26;;;;;;;3.63;0.90;;;20.80;99.90;;;;;;4843459;29;20065;-84
2021/06/27 17:35:53;;;;;;;4.38;0.60;;;20.70;99.90;;;;;;4847895;29;20113;-85
2021/06/27 17:38:21;;;;;;;2.03;0.70;;;20.70;99.90;;;;;;4848548;29;20053;-87
2021/06/27 17:40:48;;;;;;;4.45;0.50;;;20.60;99.90;;;;;;4852387;29;20045;-85
2021/06/27 17:43:16;;;;;;;3.65;0.70;;;20.60;99.90;;;;;;4848346;29;20057;-84
2021/06/27 17:45:46;;;;;;;2.90;0.52;;;20.60;99.90;;;;;;4844269;29;20049;-87
2021/06/27 17:48:14;;;;;;;2.42;0.70;;;20.50;99.90;;;;;;4847976;29;20113;-83
2021/06/27 17:50:43;;;;;;;3.20;0.57;;;20.50;99.90;;;;;;4845805;29;20054;-84
2021/06/27 17:53:13;;;;;;;1.60;0.60;;;20.50;99.90;;;;;;4859242;29;20310;-86
2021/06/27 17:55:43;;;;;;;2.05;0.75;;;20.50;99.90;;;;;;4844900;29;20082;-85
2021/06/27 17:58:10;;;;;;;3.47;0.80;;;20.50;99.90;;;;;;4845704;29;20053;-84
2021/06/27 18:00:37;;;;;;;2.35;0.70;;;20.50;99.90;;;;;;4863459;29;20061;-87
2021/06/27 18:03:05;;;;;;;3.38;0.90;;;20.40;99.90;;;;;;4857017;29;20117;-84
2021/06/27 18:05:32;;;;;;;3.97;0.85;;;20.40;99.90;;;;;;4857695;29;20050;-86
2021/06/27 18:08:03;;;;;;;2.13;0.55;;;20.40;99.90;;;;;;4850612;29;20410;-88
2021/06/27 18:10:30;;;;;;;3.63;0.60;;;20.80;99.90;;;;;;4868465;29;20542;-86
2021/06/27 18:12:58;;;;;;;2.55;0.80;;;21.40;99.90;;;;;;4855329;29;20101;-86
2021/06/27 18:15:25;;;;;;;3.33;0.85;;;22.10;99.90;;;;;;4854983;29;20508;-87
2021/06/27 18:17:52;;;;;;;2.45;0.65;;;22.80;99.90;;;;;;4848107;29;20121;-88
2021/06/27 18:20:19;;;;;;;2.90;0.57;;;23.50;99.90;;;;;;4851270;29;20041;-87
2021/06/27 18:22:47;;;;;;;2.47;0.60;;;24.00;99.90;;;;;;4851438;29;20412;-86
2021/06/27 18:25:18;;;;;;;2.90;0.57;;;24.10;99.90;;;;;;4852498;29;20512;-86
2021/06/27 18:27:45;;;;;;;2.50;0.68;;;23.90;99.90;;;;;;4854026;29;20062;-87
2021/06/27 18:30:14;;;;;;;2.50;0.70;;;23.70;99.90;;;;;;4855982;29;20057;-86
2021/06/27 18:32:42;;;;;;;1.83;0.57;;;23.60;99.90;;;;;;4851257;29;20061;-87
2021/06/27 18:35:09;;;;;;;1.27;0.45;;;23.60;99.70;;;;;;4867333;29;20141;-89
2021/06/27 18:37:36;;;;;;;4.45;0.85;;;23.70;99.60;;;;;;4850673;29;20060;-86
2021/06/27 18:40:05;;;;;;;2.95;0.70;;;24.00;99.30;;;;;;4856728;29;20414;-86
2021/06/27 18:42:32;;;;;;;3.85;0.77;;;24.50;98.90;;;;;;4854195;29;20046;-87
2021/06/27 18:44:59;;;;;;;3.55;0.60;;;24.80;97.90;;;;;;4864323;29;20062;-86
2021/06/27 18:47:26;;;;;;;3.08;0.65;;;24.90;97.00;;;;;;4850966;29;20073;-87
2021/06/27 18:49:53;;;;;;;1.55;0.60;;;24.60;96.80;;;;;;4864513;29;20049;-87
2021/06/27 18:52:20;;;;;;;2.42;0.50;;;24.10;96.70;;;;;;4854486;29;20045;-87
2021/06/27 18:54:47;;;;;;;3.97;0.60;;;23.70;97.00;;;;;;4854836;29;20065;-87
2021/06/27 18:57:14;;;;;;;3.90;1.33;;;23.30;97.40;;;;;;4862029;29;20054;-87
2021/06/27 18:59:41;;;;;;;4.32;0.90;;;22.90;97.90;;;;;;4855604;29;20041;-86
2021/06/27 19:02:08;;;;;;;2.25;0.70;;;22.60;98.40;;;;;;4855374;29;20050;-87
2021/06/27 19:04:34;;;;;;;3.63;0.85;;;22.30;98.80;;;;;;4855717;29;20042;-87
2021/06/27 19:07:01;;;;;;;2.40;0.60;;;21.90;99.20;;;;;;4856228;29;20093;-86
2021/06/27 19:09:28;;;;;;;3.00;0.70;;;21.60;99.70;;;;;;4869050;29;20048;-86
2021/06/27 19:11:56;;;;;;;6.72;1.70;;;21.30;99.90;;;;;;4851874;29;20131;-86
2021/06/27 19:14:23;;;;;;;5.05;0.75;;;21.00;99.90;;;;;;4868309;29;20101;-86
2021/06/27 19:16:50;;;;;;;4.03;0.90;;;20.70;99.90;;;;;;4868604;29;20564;-85
2021/06/27 19:19:17;;;;;;;3.30;0.60;;;20.40;99.90;;;;;;4861294;29;20536;-86
2021/06/27 19:21:44;;;;;;;2.90;0.80;;;20.20;99.90;;;;;;4871670;29;20442;-87
2021/06/27 19:24:11;;;;;;;2.75;0.70;;;20.10;99.90;;;;;;4852640;29;20169;-86
2021/06/27 19:26:38;;;;;;;4.78;0.90;;;19.80;99.90;;;;;;4870167;29;20069;-85
2021/06/27 19:29:05;;;;;;;2.08;0.52;;;19.60;99.90;;;;;;4871320;29;21346;-84
2021/06/27 19:31:32;;;;;;;2.08;0.60;;;19.40;99.90;;;;;;4856473;29;20121;-85
2021/06/27 19:33:59;;;;;;;2.88;0.60;;;19.30;99.90;;;;;;4854388;29;20050;-85
2021/06/27 19:36:27;;;;;;;2.30;0.65;;;19.10;99.90;;;;;;4855731;29;20053;-87
2021/06/27 19:38:55;;;;;;;2.43;0.60;;;19.00;99.90;;;;;;4858243;29;20095;-86
2021/06/27 19:41:22;;;;;;;4.57;0.75;;;18.90;99.90;;;;;;4859505;29;20053;-88
2021/06/27 19:43:50;;;;;;;1.52;0.50;;;18.80;99.90;;;;;;4854413;29;20065;-85
2021/06/27 19:46:17;;;;;;;1.92;0.55;;;18.70;99.90;;;;;;4858243;29;20447;-85
2021/06/27 19:48:44;;;;;;;1.98;0.40;;;18.60;99.90;;;;;;4858112;29;20097;-87
2021/06/27 19:51:11;;;;;;;1.70;0.60;;;18.50;99.90;;;;;;4856981;29;20548;-86
2021/06/27 19:53:39;;;;;;;2.20;0.50;;;18.40;99.90;;;;;;4858876;29;20532;-85
2021/06/27 19:56:06;;;;;;;2.05;0.63;;;18.30;99.90;;;;;;4855593;29;20049;-84
2021/06/27 19:58:35;;;;;;;1.85;0.57;;;18.30;99.90;;;;;;4870649;29;20045;-85
2021/06/27 20:01:05;;;;;;;2.30;0.40;;;18.20;99.90;;;;;;4856723;29;20643;-85
2021/06/27 20:03:35;;;;;;;1.48;0.50;;;18.10;99.90;;;;;;4853089;29;20072;-86
2021/06/27 20:06:02;;;;;;;1.90;0.40;;;18.00;99.90;;;;;;4862572;29;20117;-86
2021/06/27 20:08:29;;;;;;;2.45;0.50;;;17.90;99.90;;;;;;4849591;29;20359;-89
2021/06/27 20:10:56;;;;;;;1.88;0.60;;;17.80;99.90;;;;;;4853427;29;20521;-85
2021/06/27 20:13:23;;;;;;;3.45;0.50;;;17.70;99.90;;;;;;4858901;29;20102;-89
2021/06/27 20:15:53;;;;;;;5.47;0.68;;;17.60;99.90;;;;;;4854697;29;20138;-86
2021/06/27 20:18:21;;;;;;;1.48;0.50;;;17.50;99.90;;;;;;4860663;29;20070;-86
2021/06/27 20:20:50;;;;;;;1.40;0.60;;;17.40;99.90;;;;;;4876939;29;20045;-86
2021/06/27 20:23:17;;;;;;;;;;;17.30;99.90;;;;;;4864923;29;20294;-87
2021/06/27 20:25:46;;;;;;;1.27;0.40;;;17.20;99.90;;;;;;4852644;29;20397;-86
2021/06/27 20:28:15;;;;;;;2.17;0.50;;;17.10;99.90;;;;;;4857230;29;20045;-88
2021/06/27 20:30:42;;;;;;;1.67;0.65;;;17.10;99.90;;;;;;4851413;29;20493;-87
2021/06/27 20:33:10;;;;;;;2.83;0.80;;;17.00;99.90;;;;;;4870515;29;20065;-87
2021/06/27 20:35:37;;;;;;;1.38;0.70;;;16.90;99.90;;;;;;4855705;29;20061;-86